Time;durP1;ratioP1;P1;durP2;ratioP2;P2;SDS_P1;SDS_P2;PMS_P1;PMS_P2;Temp;Humidity;BMP_temperature;BMP_pressure;BME280_temperature;BME280_humidity;BME280_pressure;Samples;Min_cycle;Max_cycle;Signal;HPM_P1;HPM_P2
2023/07/01 00:01:59;;;;;;;2.47;1.70;;;21.50;77.00;;;;;;5093206;28;20048;-31
2023/07/01 00:04:27;;;;;;;1.50;1.30;;;22.10;76.80;;;;;;5095088;28;20054;-32
2023/07/01 00:06:54;;;;;;;2.47;1.50;;;21.30;76.50;;;;;;5095526;28;20041;-31
2023/07/01 00:09:21;;;;;;;2.10;1.35;;;;;;;;;;5095230;28;20486;-36
2023/07/01 00:11:48;;;;;;;2.13;1.67;;;21.90;70.10;;;;;;5095217;28;20055;-31
2023/07/01 00:14:16;;;;;;;1.73;1.30;;;21.70;60.30;;;;;;5093301;28;20044;-36
2023/07/01 00:16:43;;;;;;;2.33;1.58;;;;;;;;;;5094664;28;20040;-36
2023/07/01 00:19:10;;;;;;;2.13;1.50;;;;;;;;;;5095421;28;20127;-32
2023/07/01 00:21:37;;;;;;;2.67;1.70;;;;;;;;;;5095306;28;20067;-36
2023/07/01 00:24:04;;;;;;;2.78;1.50;;;21.60;77.00;;;;;;5094895;28;20055;-32
2023/07/01 00:26:31;;;;;;;1.95;1.40;;;;;;;;;;5094869;28;20509;-35
2023/07/01 00:28:59;;;;;;;2.20;1.50;;;;;;;;;;5077565;28;20501;-31
2023/07/01 00:31:27;;;;;;;2.03;1.55;;;21.80;77.20;;;;;;5082474;28;20135;-31
2023/07/01 00:33:54;;;;;;;1.60;1.45;;;;;;;;;;5094622;28;20131;-31
2023/07/01 00:36:20;;;;;;;2.20;1.50;;;21.50;76.20;;;;;;5090475;28;20127;-31
2023/07/01 00:38:47;;;;;;;2.22;1.52;;;21.80;76.50;;;;;;5094617;28;20058;-31
2023/07/01 00:41:17;;;;;;;2.92;1.45;;;;;;;;;;5093988;28;20131;-34
2023/07/01 00:43:44;;;;;;;2.53;1.50;;;;;;;;;;5094555;28;20058;-31
2023/07/01 00:46:11;;;;;;;2.55;1.50;;;21.70;77.20;;;;;;5094742;28;20136;-32
2023/07/01 00:48:39;;;;;;;2.05;1.60;;;21.70;60.30;;;;;;5094461;28;20052;-35
2023/07/01 00:51:06;;;;;;;2.08;1.50;;;;;;;;;;5094370;28;20055;-36
2023/07/01 00:53:33;;;;;;;1.95;1.42;;;21.50;76.30;;;;;;5092894;28;20124;-31
2023/07/01 00:56:00;;;;;;;1.58;1.30;;;22.60;76.80;;;;;;5094071;28;20048;-31
2023/07/01 00:58:27;;;;;;;2.15;1.50;;;;;;;;;;5094584;28;20123;-35
2023/07/01 01:00:56;;;;;;;4.13;1.50;;;;;;;;;;5094486;28;20131;-31
2023/07/01 01:03:26;;;;;;;2.28;1.60;;;;;;;;;;5094196;28;20104;-35
2023/07/01 01:06:00;;;;;;;2.83;1.40;;;22.10;76.50;;;;;;5093991;28;20074;-32
2023/07/01 01:08:29;;;;;;;1.90;1.40;;;21.60;60.20;;;;;;5094248;28;20052;-32
2023/07/01 01:10:56;;;;;;;1.60;1.40;;;22.20;76.60;;;;;;5092683;28;20126;-31
2023/07/01 01:13:23;;;;;;;3.67;1.40;;;;;;;;;;5094050;28;20131;-35
2023/07/01 01:15:50;;;;;;;3.50;1.55;;;;;;;;;;5093859;28;20130;-34
2023/07/01 01:18:17;;;;;;;2.00;1.40;;;;;;;;;;5093979;28;20139;-36
2023/07/01 01:20:44;;;;;;;2.72;1.35;;;21.70;76.50;;;;;;5093980;28;20147;-31
2023/07/01 01:23:15;;;;;;;3.63;1.60;;;21.60;76.10;;;;;;5093626;28;20059;-31
2023/07/01 01:25:44;;;;;;;1.98;1.40;;;20.60;75.70;;;;;;5092314;28;20072;-32
2023/07/01 01:28:12;;;;;;;2.35;1.60;;;21.30;76.00;;;;;;5093420;28;20135;-31
2023/07/01 01:30:39;;;;;;;2.83;1.50;;;20.90;76.10;;;;;;5093789;28;20123;-31
2023/07/01 01:33:06;;;;;;;3.58;1.60;;;20.90;70.50;;;;;;5093705;28;20131;-32
2023/07/01 01:35:33;;;;;;;7.03;2.53;;;22.80;76.80;;;;;;5093502;28;20055;-31
2023/07/01 01:38:01;;;;;;;2.72;1.50;;;21.60;60.00;;;;;;5092707;28;20501;-35
2023/07/01 01:40:30;;;;;;;3.13;1.50;;;21.70;60.00;;;;;;5093650;28;20128;-35
2023/07/01 01:43:00;;;;;;;4.60;1.70;;;21.50;76.10;;;;;;5080347;28;20131;-31
2023/07/01 01:45:28;;;;;;;1.95;1.40;;;21.50;76.00;;;;;;5072976;28;20126;-31
2023/07/01 01:47:56;;;;;;;2.75;1.45;;;21.80;65.20;;;;;;5073194;28;20123;-34
2023/07/01 01:50:22;;;;;;;2.38;1.63;;;21.40;70.70;;;;;;5073222;28;20048;-33
2023/07/01 01:52:49;;;;;;;2.42;1.40;;;21.50;76.20;;;;;;5072896;28;20576;-31
2023/07/01 01:55:17;;;;;;;2.67;1.58;;;;;;;;;;5073028;28;20049;-34
2023/07/01 01:57:44;;;;;;;2.72;1.60;;;;;;;;;;5073858;28;20042;-35
2023/07/01 02:00:13;;;;;;;3.28;1.83;;;21.60;59.90;;;;;;5074032;28;20128;-34
2023/07/01 02:02:41;;;;;;;2.55;1.35;;;21.00;76.50;;;;;;5072044;28;20044;-31
2023/07/01 02:05:08;;;;;;;3.13;1.48;;;21.00;59.50;;;;;;5072977;28;20127;-33
2023/07/01 02:07:35;;;;;;;4.28;1.42;;;;;;;;;;5072917;28;20127;-35
2023/07/01 02:10:02;;;;;;;2.40;1.67;;;21.40;67.00;;;;;;5073013;28;20052;-31
2023/07/01 02:12:30;;;;;;;2.72;1.60;;;21.40;71.60;;;;;;5072290;28;20102;-32
2023/07/01 02:14:57;;;;;;;1.92;1.50;;;;;;;;;;5073773;28;20048;-35
2023/07/01 02:17:24;;;;;;;1.58;1.30;;;22.00;76.80;;;;;;5073778;28;20132;-31
2023/07/01 02:19:52;;;;;;;2.53;1.45;;;21.80;76.00;;;;;;5092978;28;20126;-31
2023/07/01 02:22:18;;;;;;;4.45;1.95;;;22.60;76.40;;;;;;5092484;28;20544;-30
2023/07/01 02:24:45;;;;;;;2.45;1.50;;;;;;;;;;5092606;28;20134;-36
2023/07/01 02:27:12;;;;;;;2.50;1.55;;;21.30;76.30;;;;;;5092555;28;20135;-31
2023/07/01 02:29:39;;;;;;;2.53;1.70;;;21.10;75.40;;;;;;5087886;28;20618;-31
2023/07/01 02:32:07;;;;;;;2.85;1.58;;;21.60;76.50;;;;;;5089640;28;20468;-31
2023/07/01 02:34:34;;;;;;;2.28;1.63;;;21.40;75.00;;;;;;5072120;28;20052;-32
2023/07/01 02:37:02;;;;;;;2.00;1.55;;;21.50;75.70;;;;;;5081428;28;20040;-31
2023/07/01 02:39:29;;;;;;;4.28;1.85;;;21.10;75.80;;;;;;5092385;28;20560;-31
2023/07/01 02:41:56;;;;;;;3.75;1.77;;;;;;;;;;5092363;28;20130;-36
2023/07/01 02:44:22;;;;;;;4.40;1.90;;;21.80;76.60;;;;;;5092051;28;20130;-31
2023/07/01 02:46:49;;;;;;;3.35;1.60;;;21.60;76.00;;;;;;5078852;28;20507;-31
2023/07/01 02:49:16;;;;;;;3.08;1.70;;;;;;;;;;5072022;28;20054;-33
2023/07/01 02:51:43;;;;;;;2.17;1.52;;;21.00;76.20;;;;;;5072108;28;20131;-32
2023/07/01 02:54:11;;;;;;;3.42;1.85;;;21.50;59.50;;;;;;5071814;28;20540;-35
2023/07/01 02:56:38;;;;;;;2.80;1.50;;;20.90;75.60;;;;;;5071633;28;20124;-31
2023/07/01 02:59:05;;;;;;;5.65;1.60;;;21.20;75.50;;;;;;5071991;28;20052;-31
2023/07/01 03:01:31;;;;;;;2.45;1.67;;;21.10;75.90;;;;;;5075447;28;20468;-31
2023/07/01 03:03:58;;;;;;;3.00;1.90;;;;;;;;;;5091595;28;20146;-36
2023/07/01 03:06:26;;;;;;;4.38;2.00;;;21.80;76.00;;;;;;5091906;28;20126;-32
2023/07/01 03:08:53;;;;;;;2.17;1.77;;;;;;;;;;5092088;28;20044;-34
2023/07/01 03:11:21;;;;;;;4.32;1.80;;;21.70;76.70;;;;;;5092308;28;20127;-31
2023/07/01 03:13:47;;;;;;;3.33;1.95;;;21.60;69.70;;;;;;5091513;28;20127;-31
2023/07/01 03:16:15;;;;;;;3.42;1.65;;;;;;;;;;5092021;28;20048;-31
2023/07/01 03:18:42;;;;;;;2.35;1.55;;;21.20;75.80;;;;;;5090144;28;20564;-31
2023/07/01 03:21:08;;;;;;;2.67;1.73;;;21.20;76.10;;;;;;5091608;28;20048;-31
2023/07/01 03:23:35;;;;;;;2.40;1.58;;;22.30;67.60;;;;;;5091563;28;20135;-33
2023/07/01 03:26:02;;;;;;;3.38;1.88;;;21.90;76.20;;;;;;5091855;28;20615;-32
2023/07/01 03:28:30;;;;;;;2.40;1.45;;;21.40;66.50;;;;;;5091939;28;20217;-33
2023/07/01 03:30:57;;;;;;;1.98;1.60;;;21.30;65.10;;;;;;5091797;28;20083;-32
2023/07/01 03:33:25;;;;;;;3.08;1.88;;;;;;;;;;5084986;28;20051;-31
2023/07/01 03:35:51;;;;;;;2.85;1.75;;;21.20;59.90;;;;;;5071329;28;20422;-34
2023/07/01 03:38:18;;;;;;;2.33;1.77;;;20.80;76.00;;;;;;5091895;28;20135;-31
2023/07/01 03:40:45;;;;;;;2.35;1.80;;;22.50;76.40;;;;;;5091619;28;20135;-31
2023/07/01 03:43:12;;;;;;;3.55;1.70;;;20.70;61.70;;;;;;5091413;28;20131;-34
2023/07/01 03:45:40;;;;;;;2.83;1.67;;;21.20;76.00;;;;;;5091705;28;20135;-31
2023/07/01 03:48:06;;;;;;;4.13;1.90;;;20.30;75.30;;;;;;5090900;28;20048;-31
2023/07/01 03:50:33;;;;;;;2.85;1.60;;;21.20;75.80;;;;;;5091552;28;20134;-31
2023/07/01 03:53:00;;;;;;;3.78;1.80;;;;;;;;;;5091376;28;20087;-34
2023/07/01 03:55:27;;;;;;;3.08;1.83;;;21.80;76.20;;;;;;5091602;28;20052;-33
2023/07/01 03:57:54;;;;;;;3.95;1.85;;;;;;;;;;5091551;28;20063;-36
2023/07/01 04:00:21;;;;;;;2.72;1.67;;;21.30;76.10;;;;;;5091727;28;20131;-32
2023/07/01 04:02:50;;;;;;;4.25;1.80;;;21.40;59.60;;;;;;5089518;28;20526;-36
2023/07/01 04:05:17;;;;;;;2.78;1.65;;;21.00;76.40;;;;;;5091651;28;20131;-31
2023/07/01 04:07:44;;;;;;;2.03;1.60;;;21.60;76.40;;;;;;5091142;28;20130;-31
2023/07/01 04:10:11;;;;;;;3.50;2.00;;;21.20;75.90;;;;;;5091589;28;20135;-31
2023/07/01 04:12:39;;;;;;;2.50;1.70;;;21.40;59.70;;;;;;5091319;28;20106;-37
2023/07/01 04:15:09;;;;;;;2.53;1.60;;;21.80;76.20;;;;;;5090147;28;20487;-31
2023/07/01 04:17:36;;;;;;;3.35;1.83;;;21.20;75.90;;;;;;5074734;28;20051;-31
2023/07/01 04:20:06;;;;;;;3.13;1.73;;;21.60;76.00;;;;;;5071010;28;20621;-31
2023/07/01 04:22:33;;;;;;;3.17;1.98;;;21.60;71.20;;;;;;5071134;28;20051;-32
2023/07/01 04:25:00;;;;;;;3.22;1.80;;;21.20;76.30;;;;;;5071748;28;20058;-31
2023/07/01 04:27:27;;;;;;;5.85;2.00;;;;;;;;;;5087260;28;20123;-35
2023/07/01 04:29:54;;;;;;;2.97;1.65;;;20.90;76.60;;;;;;5094769;28;20060;-31
2023/07/01 04:32:20;;;;;;;2.47;1.70;;;21.10;76.00;;;;;;5089164;28;20127;-31
2023/07/01 04:34:47;;;;;;;2.40;1.80;;;;;;;;;;5093585;28;20048;-34
2023/07/01 04:37:16;;;;;;;2.30;1.80;;;21.10;76.00;;;;;;5094247;28;20048;-32
2023/07/01 04:39:42;;;;;;;3.15;1.70;;;21.80;66.20;;;;;;5095013;28;20054;-31
2023/07/01 04:42:10;;;;;;;2.83;1.67;;;21.00;75.90;;;;;;5094714;28;20130;-31
2023/07/01 04:44:37;;;;;;;3.45;2.00;;;21.00;76.00;;;;;;5094777;28;20526;-32
2023/07/01 04:47:04;;;;;;;1.90;1.40;;;21.40;59.90;;;;;;5090425;28;20041;-36
2023/07/01 04:49:30;;;;;;;2.20;1.80;;;21.40;76.50;;;;;;5074366;28;20099;-31
2023/07/01 04:51:57;;;;;;;2.67;1.77;;;21.20;76.10;;;;;;5074358;28;20072;-31
2023/07/01 04:54:25;;;;;;;2.72;1.80;;;21.20;65.70;;;;;;5074419;28;20135;-33
2023/07/01 04:56:52;;;;;;;2.58;1.67;;;;;;;;;;5073757;28;20131;-33
2023/07/01 04:59:19;;;;;;;2.20;1.90;;;21.50;75.30;;;;;;5074219;28;20485;-32
2023/07/01 05:01:46;;;;;;;2.90;1.67;;;;;;;;;;5073976;28;20051;-37
2023/07/01 05:04:13;;;;;;;3.38;1.80;;;21.80;76.20;;;;;;5083309;28;20050;-31
2023/07/01 05:06:39;;;;;;;2.45;1.70;;;22.10;77.40;;;;;;5094474;28;20084;-31
2023/07/01 05:09:08;;;;;;;3.35;1.77;;;;;;;;;;5094055;28;20131;-35
2023/07/01 05:11:36;;;;;;;2.70;1.70;;;21.20;69.10;;;;;;5094064;28;20083;-31
2023/07/01 05:14:03;;;;;;;2.60;1.63;;;21.90;76.80;;;;;;5093379;28;20052;-31
2023/07/01 05:16:31;;;;;;;2.60;1.70;;;20.80;76.80;;;;;;5093923;28;20699;-31
2023/07/01 05:18:58;;;;;;;2.17;1.70;;;21.60;76.50;;;;;;5092834;28;20109;-31
2023/07/01 05:21:25;;;;;;;4.03;2.00;;;21.00;65.10;;;;;;5073959;28;20063;-32
2023/07/01 05:23:52;;;;;;;3.20;1.75;;;;;;;;;;5073503;28;20127;-39
2023/07/01 05:26:19;;;;;;;2.10;1.60;;;21.80;69.70;;;;;;5073538;28;20079;-41
2023/07/01 05:28:47;;;;;;;2.15;1.50;;;21.30;60.10;;;;;;5073555;28;20131;-39
2023/07/01 05:31:15;;;;;;;2.90;1.70;;;;;;;;;;5073413;28;20116;-41
2023/07/01 05:33:44;;;;;;;4.28;1.95;;;20.80;77.00;;;;;;5088009;28;20577;-41
2023/07/01 05:36:11;;;;;;;2.63;1.60;;;;;;;;;;5073708;28;20070;-37
2023/07/01 05:38:38;;;;;;;3.75;1.83;;;21.00;76.30;;;;;;5072935;28;20048;-40
2023/07/01 05:41:05;;;;;;;3.00;1.90;;;;;;;;;;5073311;28;20056;-38
2023/07/01 05:43:32;;;;;;;3.17;1.92;;;21.10;63.90;;;;;;5072756;28;20052;-39
2023/07/01 05:46:00;;;;;;;2.60;1.85;;;20.50;76.40;;;;;;5073280;28;20055;-40
2023/07/01 05:48:27;;;;;;;2.42;1.70;;;21.30;76.60;;;;;;5073355;28;20119;-40
2023/07/01 05:50:53;;;;;;;2.22;1.63;;;21.40;67.80;;;;;;5074171;28;20067;-38
2023/07/01 05:53:20;;;;;;;2.05;1.60;;;21.30;76.80;;;;;;5072894;28;20059;-41
2023/07/01 05:55:47;;;;;;;3.55;1.70;;;21.10;76.80;;;;;;5073115;28;20045;-40
2023/07/01 05:58:14;;;;;;;3.97;1.90;;;21.60;62.90;;;;;;5072530;28;20128;-39
2023/07/01 06:00:40;;;;;;;2.67;1.65;;;21.80;77.70;;;;;;5072980;28;20489;-40
2023/07/01 06:03:11;;;;;;;2.92;1.70;;;21.30;60.30;;;;;;5072783;28;20135;-40
2023/07/01 06:05:38;;;;;;;2.10;1.70;;;;;;;;;;5072905;28;20074;-37
2023/07/01 06:08:05;;;;;;;2.78;1.70;;;22.20;76.90;;;;;;5083465;28;20131;-41
2023/07/01 06:10:31;;;;;;;3.63;1.70;;;22.00;77.30;;;;;;5091456;28;20123;-41
2023/07/01 06:12:58;;;;;;;2.55;1.70;;;;;;;;;;5081819;28;20135;-40
2023/07/01 06:15:25;;;;;;;3.97;1.70;;;21.50;76.60;;;;;;5078702;28;20068;-39
2023/07/01 06:17:52;;;;;;;2.70;1.60;;;;;;;;;;5079244;28;20040;-38
2023/07/01 06:20:20;;;;;;;3.05;1.92;;;21.20;77.40;;;;;;5080444;28;20128;-41
2023/07/01 06:22:47;;;;;;;2.80;1.60;;;21.20;77.40;;;;;;5080490;28;20119;-41
2023/07/01 06:25:14;;;;;;;2.08;1.70;;;21.30;60.40;;;;;;5082641;28;20056;-38
2023/07/01 06:27:41;;;;;;;2.22;1.90;;;21.50;77.60;;;;;;5083027;28;20123;-40
2023/07/01 06:30:08;;;;;;;2.17;1.58;;;20.60;76.40;;;;;;5082622;28;20127;-41
2023/07/01 06:32:35;;;;;;;2.13;1.50;;;;;;;;;;5082731;28;20152;-40
2023/07/01 06:35:02;;;;;;;2.17;1.52;;;21.70;68.50;;;;;;5081361;28;20055;-40
2023/07/01 06:37:30;;;;;;;2.28;1.70;;;20.50;73.10;;;;;;5079581;28;20152;-37
2023/07/01 06:39:57;;;;;;;2.40;1.63;;;21.90;72.80;;;;;;5081486;28;20048;-41
2023/07/01 06:42:24;;;;;;;2.40;1.65;;;20.10;76.10;;;;;;5070348;28;20408;-38
2023/07/01 06:44:51;;;;;;;2.42;1.65;;;21.40;77.60;;;;;;5071549;28;20120;-39
2023/07/01 06:47:17;;;;;;;3.75;1.77;;;20.40;68.00;;;;;;5071306;28;20584;-41
2023/07/01 06:49:44;;;;;;;1.98;1.40;;;20.60;67.10;;;;;;5071459;28;20124;-41
2023/07/01 06:52:11;;;;;;;2.00;1.50;;;21.10;67.50;;;;;;5071450;28;20048;-38
2023/07/01 06:54:39;;;;;;;2.90;1.60;;;20.40;61.50;;;;;;5071875;28;20127;-37
2023/07/01 06:57:06;;;;;;;3.80;1.67;;;21.20;60.40;;;;;;5071176;28;20116;-39
2023/07/01 06:59:33;;;;;;;2.25;1.50;;;21.50;77.00;;;;;;5082405;28;20044;-39
2023/07/01 07:02:00;;;;;;;2.42;1.60;;;;;;;;;;5080929;28;20127;-37
2023/07/01 07:04:27;;;;;;;3.58;1.50;;;21.10;76.60;;;;;;5082465;28;20119;-40
2023/07/01 07:06:54;;;;;;;2.35;1.60;;;;;;;;;;5088960;28;20044;-35
2023/07/01 07:09:22;;;;;;;2.00;1.50;;;21.20;77.10;;;;;;5089536;28;20040;-41
2023/07/01 07:11:54;;;;;;;1.95;1.50;;;21.10;64.70;;;;;;5086357;28;20044;-41
2023/07/01 07:14:21;;;;;;;3.67;1.60;;;20.90;74.40;;;;;;5088904;28;20093;-41
2023/07/01 07:16:48;;;;;;;1.98;1.67;;;;;;;;;;5087318;28;20469;-36
2023/07/01 07:19:15;;;;;;;3.28;1.90;;;;;;;;;;5086823;28;20410;-39
2023/07/01 07:21:42;;;;;;;3.10;1.60;;;;;;;;;;5083134;28;20048;-38
2023/07/01 07:24:09;;;;;;;2.47;1.40;;;21.40;77.90;;;;;;5081092;28;20048;-40
2023/07/01 07:26:37;;;;;;;1.63;1.38;;;;;;;;;;5082647;28;20123;-37
2023/07/01 07:29:05;;;;;;;3.25;1.70;;;21.30;60.70;;;;;;5080341;28;20497;-36
2023/07/01 07:31:32;;;;;;;2.10;1.70;;;;;;;;;;5079754;28;20131;-36
2023/07/01 07:33:59;;;;;;;2.00;1.70;;;21.20;75.40;;;;;;5082184;28;20135;-32
2023/07/01 07:36:26;;;;;;;2.38;1.50;;;;;;;;;;5078643;28;20049;-31
2023/07/01 07:38:53;;;;;;;2.33;1.50;;;21.10;75.30;;;;;;5082202;28;20124;-32
2023/07/01 07:41:20;;;;;;;2.40;1.70;;;21.20;77.20;;;;;;5080290;28;20040;-31
2023/07/01 07:43:47;;;;;;;3.20;1.65;;;;;;;;;;5081718;28;20119;-35
2023/07/01 07:46:15;;;;;;;2.45;1.67;;;21.70;78.20;;;;;;5082577;28;20044;-31
2023/07/01 07:48:42;;;;;;;2.28;1.70;;;21.60;77.80;;;;;;5071218;28;20123;-31
2023/07/01 07:51:09;;;;;;;2.40;1.50;;;;;;;;;;5071070;28;20572;-35
2023/07/01 07:53:36;;;;;;;2.55;1.70;;;21.30;77.60;;;;;;5070675;28;20052;-31
2023/07/01 07:56:03;;;;;;;2.00;1.48;;;21.30;77.30;;;;;;5071354;28;20135;-31
2023/07/01 07:58:29;;;;;;;1.63;1.52;;;20.90;67.20;;;;;;5071006;28;20049;-33
2023/07/01 08:00:56;;;;;;;2.08;1.40;;;21.60;72.50;;;;;;5073746;28;20493;-31
2023/07/01 08:03:24;;;;;;;2.72;1.60;;;20.80;77.90;;;;;;5085630;28;20128;-31
2023/07/01 08:05:51;;;;;;;2.30;1.60;;;20.90;77.10;;;;;;5075692;28;20438;-31
2023/07/01 08:08:18;;;;;;;1.90;1.55;;;;;;;;;;5075310;28;20048;-33
2023/07/01 08:10:45;;;;;;;2.30;1.75;;;21.60;77.90;;;;;;5075212;28;20416;-31
2023/07/01 08:13:12;;;;;;;2.88;1.50;;;21.00;77.20;;;;;;5079961;28;20052;-31
2023/07/01 08:15:39;;;;;;;2.60;1.48;;;21.20;77.30;;;;;;5083870;28;20409;-30
2023/07/01 08:18:06;;;;;;;2.75;1.50;;;21.00;70.80;;;;;;5084751;28;20048;-31
2023/07/01 08:20:34;;;;;;;2.63;1.50;;;20.20;76.80;;;;;;5081777;28;20564;-31
2023/07/01 08:23:01;;;;;;;2.13;1.40;;;;;;;;;;5073556;28;20139;-35
2023/07/01 08:25:28;;;;;;;1.50;1.30;;;20.60;64.30;;;;;;5073145;28;20048;-32
2023/07/01 08:27:55;;;;;;;1.75;1.50;;;21.50;77.90;;;;;;5072942;28;20133;-31
2023/07/01 08:30:22;;;;;;;1.50;1.38;;;;;;;;;;5087475;28;20130;-36
2023/07/01 08:32:49;;;;;;;2.47;1.73;;;;;;;;;;5092990;28;20048;-35
2023/07/01 08:35:16;;;;;;;2.35;1.50;;;;;;;;;;5093172;28;20147;-36
2023/07/01 08:37:44;;;;;;;1.63;1.40;;;21.40;61.20;;;;;;5092232;28;20055;-33
2023/07/01 08:40:12;;;;;;;2.08;1.48;;;20.20;77.00;;;;;;5094537;28;20119;-31
2023/07/01 08:42:42;;;;;;;1.70;1.42;;;21.40;61.30;;;;;;5094039;28;20101;-34
2023/07/01 08:45:10;;;;;;;5.28;1.50;;;21.90;78.80;;;;;;5094036;28;20493;-31
2023/07/01 08:47:37;;;;;;;2.70;1.50;;;20.70;63.10;;;;;;5083723;28;20131;-34
2023/07/01 08:50:05;;;;;;;2.78;1.60;;;22.50;78.40;;;;;;5074376;28;20074;-32
2023/07/01 08:52:32;;;;;;;2.15;1.55;;;21.40;77.70;;;;;;5074187;28;20497;-32
2023/07/01 08:55:00;;;;;;;2.75;1.45;;;20.70;63.20;;;;;;5074287;28;20135;-34
2023/07/01 08:57:27;;;;;;;2.15;1.40;;;;;;;;;;5081031;28;20467;-34
2023/07/01 08:59:54;;;;;;;1.65;1.25;;;21.10;77.40;;;;;;5083516;28;20138;-33
2023/07/01 09:02:22;;;;;;;1.98;1.30;;;21.60;77.90;;;;;;5076423;28;20044;-33
2023/07/01 09:04:48;;;;;;;1.40;1.25;;;21.60;77.50;;;;;;5086634;28;20080;-32
2023/07/01 09:07:15;;;;;;;1.67;1.20;;;;;;;;;;5094084;28;20139;-32
2023/07/01 09:09:42;;;;;;;2.42;1.58;;;21.10;77.80;;;;;;5086780;28;20131;-33
2023/07/01 09:12:10;;;;;;;1.50;1.30;;;21.40;77.00;;;;;;5080690;28;20508;-32
2023/07/01 09:14:57;;;;;;;2.20;1.58;;;21.50;76.70;;;;;;5082921;28;20052;-32
2023/07/01 09:17:27;;;;;;;1.48;1.20;;;21.80;60.70;;;;;;5084114;28;20049;-36
2023/07/01 09:19:54;;;;;;;1.83;1.20;;;;;;;;;;5073109;28;20044;-36
2023/07/01 09:22:21;;;;;;;2.50;1.50;;;22.00;76.70;;;;;;5080795;28;20119;-32
2023/07/01 09:24:48;;;;;;;1.17;0.98;;;;;;;;;;5084741;28;20517;-35
2023/07/01 09:27:16;;;;;;;1.13;1.00;;;22.20;77.00;;;;;;5083740;28;20404;-31
2023/07/01 09:29:43;;;;;;;1.45;1.10;;;21.80;76.70;;;;;;5073199;28;20124;-31
2023/07/01 09:32:10;;;;;;;1.55;1.10;;;23.20;76.50;;;;;;5078190;28;20048;-31
2023/07/01 09:34:52;;;;;;;3.10;1.30;;;21.60;76.30;;;;;;5082401;28;20049;-33
2023/07/01 09:37:19;;;;;;;2.20;1.52;;;22.10;75.60;;;;;;5078095;28;20044;-31
2023/07/01 09:39:46;;;;;;;1.90;1.10;;;;;;;;;;5080268;28;20135;-36
2023/07/01 09:42:13;;;;;;;1.05;0.95;;;22.60;76.30;;;;;;5079033;28;20124;-31
2023/07/01 09:44:41;;;;;;;1.38;1.00;;;22.70;76.30;;;;;;5079289;28;20481;-33
2023/07/01 09:47:09;;;;;;;1.70;1.10;;;;;;;;;;5084208;28;20103;-32
2023/07/01 09:49:38;;;;;;;1.30;1.20;;;22.80;75.60;;;;;;5072121;28;20553;-31
2023/07/01 09:52:06;;;;;;;1.48;1.20;;;22.80;68.60;;;;;;5072606;28;20051;-33
2023/07/01 09:54:33;;;;;;;2.17;1.10;;;;;;;;;;5080796;28;20455;-35
2023/07/01 09:57:00;;;;;;;2.10;1.30;;;22.80;75.60;;;;;;5083719;28;20048;-31
2023/07/01 09:59:27;;;;;;;1.90;1.20;;;;;;;;;;5081757;28;20060;-35
2023/07/01 10:01:57;;;;;;;1.40;1.20;;;23.50;75.70;;;;;;5081347;28;20551;-31
2023/07/01 10:04:25;;;;;;;1.27;1.10;;;22.40;74.30;;;;;;5081676;28;20048;-33
2023/07/01 10:06:53;;;;;;;1.30;1.20;;;23.20;74.90;;;;;;5081458;28;20094;-31
2023/07/01 10:09:23;;;;;;;1.45;1.10;;;24.50;75.40;;;;;;5082904;28;20049;-32
2023/07/01 10:11:50;;;;;;;1.02;0.93;;;24.50;65.90;;;;;;5081701;28;20040;-32
2023/07/01 10:14:18;;;;;;;1.83;1.10;;;;;;;;;;5082409;28;20048;-35
2023/07/01 10:16:48;;;;;;;1.10;1.00;;;23.20;74.90;;;;;;5085882;28;20048;-32
2023/07/01 10:19:31;;;;;;;1.63;1.17;;;23.80;59.00;;;;;;5092267;28;20544;-32
2023/07/01 10:22:26;;;;;;;1.08;0.98;;;24.10;70.40;;;;;;5083409;28;20048;-33
2023/07/01 10:25:02;;;;;;;1.55;1.10;;;23.60;74.10;;;;;;5085111;28;20093;-32
2023/07/01 10:28:15;;;;;;;1.38;1.17;;;23.70;58.50;;;;;;5097882;28;20055;-33
2023/07/01 10:31:10;;;;;;;1.13;1.05;;;23.70;58.50;;;;;;5088515;28;20082;-36
2023/07/01 10:33:53;;;;;;;2.50;1.23;;;24.00;74.90;;;;;;5086685;28;20444;-32
2023/07/01 10:36:22;;;;;;;1.50;1.00;;;22.80;64.70;;;;;;5082490;28;20043;-32
2023/07/01 10:38:48;;;;;;;2.45;1.30;;;23.70;65.80;;;;;;5088607;28;20048;-32
2023/07/01 10:41:15;;;;;;;1.55;1.10;;;23.80;73.80;;;;;;5101335;28;20118;-34
2023/07/01 10:43:42;;;;;;;1.30;1.05;;;23.60;74.00;;;;;;5094957;28;20127;-34
2023/07/01 10:46:11;;;;;;;2.45;1.10;;;23.80;59.90;;;;;;5097987;28;20143;-33
2023/07/01 10:48:38;;;;;;;1.85;1.10;;;23.80;74.50;;;;;;5083456;28;20565;-33
2023/07/01 10:51:05;;;;;;;1.10;1.00;;;23.80;74.00;;;;;;5087847;28;20135;-32
2023/07/01 10:53:48;;;;;;;1.10;1.00;;;23.00;73.40;;;;;;5097721;28;20044;-33
2023/07/01 10:56:15;;;;;;;0.90;0.90;;;23.50;68.60;;;;;;5110716;28;20130;-34
2023/07/01 10:58:43;;;;;;;1.40;0.93;;;23.50;74.50;;;;;;5112044;28;20475;-32
2023/07/01 11:01:10;;;;;;;1.80;1.10;;;24.00;74.20;;;;;;5099173;28;20098;-32
2023/07/01 11:03:55;;;;;;;2.17;0.88;;;23.40;73.70;;;;;;5085889;28;20119;-32
2023/07/01 11:06:22;;;;;;;1.35;1.10;;;24.60;74.60;;;;;;5071746;28;20045;-31
2023/07/01 11:08:51;;;;;;;1.35;1.10;;;23.70;58.40;;;;;;5072005;28;20059;-36
2023/07/01 11:11:21;;;;;;;1.80;1.10;;;24.40;58.80;;;;;;5071443;28;20585;-33
2023/07/01 11:14:10;;;;;;;1.23;1.13;;;23.60;67.60;;;;;;5071610;28;20135;-31
2023/07/01 11:16:36;;;;;;;2.10;1.00;;;23.40;74.30;;;;;;5068182;28;20468;-33
2023/07/01 11:19:04;;;;;;;2.78;1.27;;;23.60;58.40;;;;;;5074189;28;20527;-36
2023/07/01 11:21:31;;;;;;;2.55;1.20;;;23.60;73.80;;;;;;5091846;28;20055;-32
2023/07/01 11:24:00;;;;;;;1.70;1.17;;;23.60;58.50;;;;;;5091735;28;20044;-35
2023/07/01 11:26:29;;;;;;;1.15;1.05;;;23.90;74.10;;;;;;5092080;28;20056;-32
2023/07/01 11:28:56;;;;;;;1.40;1.00;;;;;;;;;;5091715;28;20131;-34
2023/07/01 11:31:24;;;;;;;1.45;1.05;;;22.90;73.60;;;;;;5090240;28;20054;-33
2023/07/01 11:33:51;;;;;;;1.92;1.10;;;23.50;73.90;;;;;;5070945;28;20498;-41
2023/07/01 11:36:19;;;;;;;1.88;1.13;;;23.90;64.60;;;;;;5078159;28;20128;-37
2023/07/01 11:38:47;;;;;;;1.33;1.05;;;23.50;58.60;;;;;;5096156;28;20079;-35
2023/07/01 11:41:16;;;;;;;1.95;1.10;;;23.40;58.60;;;;;;5090758;28;20048;-38
2023/07/01 11:43:42;;;;;;;1.30;1.15;;;24.40;70.20;;;;;;5074616;28;20119;-40
2023/07/01 11:46:09;;;;;;;1.20;1.10;;;23.40;74.40;;;;;;5080706;28;20139;-36
2023/07/01 11:48:36;;;;;;;1.85;1.00;;;;;;;;;;5089808;28;20083;-35
2023/07/01 11:51:04;;;;;;;1.20;1.10;;;24.10;74.40;;;;;;5082150;28;20045;-38
2023/07/01 11:53:31;;;;;;;1.77;1.25;;;;;;;;;;5093354;28;20070;-35
2023/07/01 11:55:58;;;;;;;1.77;1.20;;;22.80;74.80;;;;;;5095712;28;20138;-40
2023/07/01 11:58:30;;;;;;;1.27;1.17;;;22.20;67.30;;;;;;5084065;28;20044;-37
2023/07/01 12:00:57;;;;;;;1.25;1.08;;;22.80;63.60;;;;;;5079165;28;20062;-39
2023/07/01 12:03:24;;;;;;;1.95;1.10;;;23.60;74.90;;;;;;5083137;28;20131;-40
2023/07/01 12:05:50;;;;;;;1.45;1.30;;;23.20;70.40;;;;;;5088232;28;20119;-41
2023/07/01 12:08:17;;;;;;;2.15;1.23;;;23.20;67.60;;;;;;5084413;28;20476;-41
2023/07/01 12:10:44;;;;;;;1.63;1.27;;;23.20;59.20;;;;;;5084238;28;20127;-41
2023/07/01 12:13:30;;;;;;;2.40;1.10;;;23.20;59.20;;;;;;5091469;28;20052;-39
2023/07/01 12:15:57;;;;;;;1.52;1.20;;;;;;;;;;5081366;28;20051;-37
2023/07/01 12:18:27;;;;;;;1.23;1.13;;;23.00;74.70;;;;;;5075391;28;20127;-39
2023/07/01 12:20:54;;;;;;;1.48;1.20;;;22.90;62.50;;;;;;5074958;28;20049;-37
2023/07/01 12:23:21;;;;;;;1.67;1.20;;;;;;;;;;5086187;28;20493;-39
2023/07/01 12:25:48;;;;;;;1.67;1.20;;;24.10;75.50;;;;;;5085712;28;20055;-40
2023/07/01 12:28:15;;;;;;;1.30;1.10;;;22.80;75.00;;;;;;5090402;28;20044;-41
2023/07/01 12:30:43;;;;;;;1.83;1.20;;;23.10;59.60;;;;;;5092999;28;20047;-36
2023/07/01 12:33:10;;;;;;;1.50;1.30;;;;;;;;;;5094179;28;20048;-40
2023/07/01 12:35:38;;;;;;;1.30;1.20;;;23.10;75.10;;;;;;5085545;28;20131;-40
2023/07/01 12:38:05;;;;;;;1.67;1.08;;;22.80;64.20;;;;;;5092892;28;20469;-41
2023/07/01 12:40:32;;;;;;;1.30;1.20;;;23.30;75.80;;;;;;5075805;28;20046;-41
2023/07/01 12:42:59;;;;;;;1.40;1.20;;;;;;;;;;5084737;28;20048;-39
2023/07/01 12:45:25;;;;;;;1.20;1.10;;;22.90;75.20;;;;;;5094697;28;20052;-41
2023/07/01 12:47:56;;;;;;;1.48;1.20;;;23.00;60.00;;;;;;5089641;28;20409;-39
2023/07/01 12:50:22;;;;;;;1.92;1.10;;;23.90;68.20;;;;;;5078488;28;20052;-40
2023/07/01 12:52:52;;;;;;;1.23;1.10;;;22.90;60.00;;;;;;5083703;28;20071;-33
2023/07/01 12:55:19;;;;;;;1.95;1.30;;;;;;;;;;5092753;28;20044;-35
2023/07/01 12:57:45;;;;;;;2.92;1.20;;;23.10;75.70;;;;;;5093356;28;20055;-31
2023/07/01 13:00:13;;;;;;;1.15;1.05;;;22.60;76.10;;;;;;5083745;28;20072;-31
2023/07/01 13:02:40;;;;;;;2.00;1.20;;;23.20;75.80;;;;;;5083185;28;20489;-32
2023/07/01 13:05:09;;;;;;;1.17;1.05;;;22.90;60.20;;;;;;5082760;28;20135;-33
2023/07/01 13:07:36;;;;;;;2.00;1.10;;;;;;;;;;5082654;28;20508;-32
2023/07/01 13:10:03;;;;;;;1.20;1.10;;;23.30;76.00;;;;;;5086760;28;20528;-31
2023/07/01 13:12:30;;;;;;;1.27;1.10;;;23.20;75.80;;;;;;5080809;28;20072;-33
2023/07/01 13:14:57;;;;;;;2.13;1.15;;;22.20;76.10;;;;;;5074322;28;20055;-33